sensor_id;sensor_type;location;lat;lon;timestamp;temperature;humidity
25718;DHT22;13574;52.040;5.692;2022-12-15T00:01:46;1.40;99.90
25718;DHT22;13574;52.040;5.692;2022-12-15T00:04:30;1.40;99.90
25718;DHT22;13574;52.040;5.692;2022-12-15T00:07:14;1.30;99.90
25718;DHT22;13574;52.040;5.692;2022-12-15T00:09:58;1.30;99.90
25718;DHT22;13574;52.040;5.692;2022-12-15T00:12:42;1.30;99.90
25718;DHT22;13574;52.040;5.692;2022-12-15T00:15:26;1.20;99.90
25718;DHT22;13574;52.040;5.692;2022-12-15T00:18:10;1.10;99.90
25718;DHT22;13574;52.040;5.692;2022-12-15T00:20:58;1.10;99.90
25718;DHT22;13574;52.040;5.692;2022-12-15T00:23:42;1.00;99.90
25718;DHT22;13574;52.040;5.692;2022-12-15T00:26:26;1.10;99.90
25718;DHT22;13574;52.040;5.692;2022-12-15T00:29:10;1.20;99.90
25718;DHT22;13574;52.040;5.692;2022-12-15T00:31:54;1.20;99.90
25718;DHT22;13574;52.040;5.692;2022-12-15T00:34:38;1.20;99.90
25718;DHT22;13574;52.040;5.692;2022-12-15T00:37:22;1.20;99.90
25718;DHT22;13574;52.040;5.692;2022-12-15T00:40:06;1.10;99.90
25718;DHT22;13574;52.040;5.692;2022-12-15T00:42:32;1.20;99.90
25718;DHT22;13574;52.040;5.692;2022-12-15T00:44:58;1.30;99.90
25718;DHT22;13574;52.040;5.692;2022-12-15T00:47:24;1.30;99.90
25718;DHT22;13574;52.040;5.692;2022-12-15T00:49:50;1.40;99.90
25718;DHT22;13574;52.040;5.692;2022-12-15T00:52:54;1.30;99.90
25718;DHT22;13574;52.040;5.692;2022-12-15T00:55:38;1.20;99.90
25718;DHT22;13574;52.040;5.692;2022-12-15T00:58:22;1.30;99.90
25718;DHT22;13574;52.040;5.692;2022-12-15T01:01:09;1.20;99.90
25718;DHT22;13574;52.040;5.692;2022-12-15T01:03:54;1.30;99.90
25718;DHT22;13574;52.040;5.692;2022-12-15T01:06:38;1.40;99.90
25718;DHT22;13574;52.040;5.692;2022-12-15T01:09:23;1.30;99.90
25718;DHT22;13574;52.040;5.692;2022-12-15T01:12:07;1.40;99.90
25718;DHT22;13574;52.040;5.692;2022-12-15T01:14:51;1.30;99.90
25718;DHT22;13574;52.040;5.692;2022-12-15T01:17:36;1.30;99.90
25718;DHT22;13574;52.040;5.692;2022-12-15T01:20:20;1.20;99.90
25718;DHT22;13574;52.040;5.692;2022-12-15T01:22:48;1.20;99.90
25718;DHT22;13574;52.040;5.692;2022-12-15T01:25:16;1.30;99.90
25718;DHT22;13574;52.040;5.692;2022-12-15T01:27:43;1.40;99.90
25718;DHT22;13574;52.040;5.692;2022-12-15T01:30:12;1.30;99.90
25718;DHT22;13574;52.040;5.692;2022-12-15T01:32:38;1.30;99.90
25718;DHT22;13574;52.040;5.692;2022-12-15T01:35:05;1.30;99.90
25718;DHT22;13574;52.040;5.692;2022-12-15T01:37:31;1.40;99.90
25718;DHT22;13574;52.040;5.692;2022-12-15T01:39:57;1.30;99.90
25718;DHT22;13574;52.040;5.692;2022-12-15T01:42:41;1.40;99.90
25718;DHT22;13574;52.040;5.692;2022-12-15T01:47:52;1.20;99.90
25718;DHT22;13574;52.040;5.692;2022-12-15T01:50:20;1.30;99.90
25718;DHT22;13574;52.040;5.692;2022-12-15T01:52:47;1.30;99.90
25718;DHT22;13574;52.040;5.692;2022-12-15T01:55:14;1.40;99.90
25718;DHT22;13574;52.040;5.692;2022-12-15T01:57:40;1.30;99.90
25718;DHT22;13574;52.040;5.692;2022-12-15T02:00:07;1.50;99.90
25718;DHT22;13574;52.040;5.692;2022-12-15T02:02:34;1.30;99.90
25718;DHT22;13574;52.040;5.692;2022-12-15T02:05:02;1.40;99.90
25718;DHT22;13574;52.040;5.692;2022-12-15T02:07:28;1.40;99.90
25718;DHT22;13574;52.040;5.692;2022-12-15T02:09:56;1.40;99.90
25718;DHT22;13574;52.040;5.692;2022-12-15T02:15:16;1.40;99.90
25718;DHT22;13574;52.040;5.692;2022-12-15T02:21:48;1.20;99.90
25718;DHT22;13574;52.040;5.692;2022-12-15T02:32:09;1.30;99.90
25718;DHT22;13574;52.040;5.692;2022-12-15T02:37:17;1.30;99.90
25718;DHT22;13574;52.040;5.692;2022-12-15T02:39:45;1.30;99.90
25718;DHT22;13574;52.040;5.692;2022-12-15T02:42:11;1.30;99.90
25718;DHT22;13574;52.040;5.692;2022-12-15T02:44:40;1.20;99.90
25718;DHT22;13574;52.040;5.692;2022-12-15T02:47:27;1.40;99.90
25718;DHT22;13574;52.040;5.692;2022-12-15T02:58:23;1.20;99.90
25718;DHT22;13574;52.040;5.692;2022-12-15T03:00:57;1.30;99.90
25718;DHT22;13574;52.040;5.692;2022-12-15T03:03:24;1.20;99.90
25718;DHT22;13574;52.040;5.692;2022-12-15T03:05:51;1.20;99.90
25718;DHT22;13574;52.040;5.692;2022-12-15T03:08:23;1.20;99.90
25718;DHT22;13574;52.040;5.692;2022-12-15T03:10:50;1.10;99.90
25718;DHT22;13574;52.040;5.692;2022-12-15T03:13:16;1.20;99.90
25718;DHT22;13574;52.040;5.692;2022-12-15T03:15:42;1.20;99.90
25718;DHT22;13574;52.040;5.692;2022-12-15T03:18:07;1.20;99.90
25718;DHT22;13574;52.040;5.692;2022-12-15T03:20:33;1.10;99.90
25718;DHT22;13574;52.040;5.692;2022-12-15T03:22:59;1.10;99.90
25718;DHT22;13574;52.040;5.692;2022-12-15T03:25:26;1.20;99.90
25718;DHT22;13574;52.040;5.692;2022-12-15T03:27:52;1.20;99.90
25718;DHT22;13574;52.040;5.692;2022-12-15T03:30:18;1.20;99.90
25718;DHT22;13574;52.040;5.692;2022-12-15T03:32:43;1.20;99.90
25718;DHT22;13574;52.040;5.692;2022-12-15T03:35:09;1.10;99.90
25718;DHT22;13574;52.040;5.692;2022-12-15T03:37:37;1.20;99.90
25718;DHT22;13574;52.040;5.692;2022-12-15T03:40:03;1.30;99.90
25718;DHT22;13574;52.040;5.692;2022-12-15T03:42:29;1.10;99.90
25718;DHT22;13574;52.040;5.692;2022-12-15T03:45:17;1.10;99.90
25718;DHT22;13574;52.040;5.692;2022-12-15T03:47:44;1.20;99.90
25718;DHT22;13574;52.040;5.692;2022-12-15T03:50:11;1.20;99.90
25718;DHT22;13574;52.040;5.692;2022-12-15T03:52:37;1.10;99.90
25718;DHT22;13574;52.040;5.692;2022-12-15T03:55:04;1.20;99.90
25718;DHT22;13574;52.040;5.692;2022-12-15T03:57:30;1.20;99.90
25718;DHT22;13574;52.040;5.692;2022-12-15T03:59:56;1.20;99.90
25718;DHT22;13574;52.040;5.692;2022-12-15T04:02:21;1.20;99.90
25718;DHT22;13574;52.040;5.692;2022-12-15T04:04:47;1.10;99.90
25718;DHT22;13574;52.040;5.692;2022-12-15T04:07:13;1.10;99.90
25718;DHT22;13574;52.040;5.692;2022-12-15T04:09:39;1.10;99.90
25718;DHT22;13574;52.040;5.692;2022-12-15T04:12:05;1.20;99.90
25718;DHT22;13574;52.040;5.692;2022-12-15T04:14:31;1.20;99.90
25718;DHT22;13574;52.040;5.692;2022-12-15T04:16:57;1.10;99.90
25718;DHT22;13574;52.040;5.692;2022-12-15T04:19:22;1.00;99.90
25718;DHT22;13574;52.040;5.692;2022-12-15T04:22:07;1.20;99.90
25718;DHT22;13574;52.040;5.692;2022-12-15T04:24:32;1.10;99.90
25718;DHT22;13574;52.040;5.692;2022-12-15T04:27:17;1.00;99.90
25718;DHT22;13574;52.040;5.692;2022-12-15T04:30:01;1.10;99.90
25718;DHT22;13574;52.040;5.692;2022-12-15T04:32:46;1.10;99.90
25718;DHT22;13574;52.040;5.692;2022-12-15T04:35:31;1.00;99.90
25718;DHT22;13574;52.040;5.692;2022-12-15T04:38:18;0.90;99.90
25718;DHT22;13574;52.040;5.692;2022-12-15T04:41:02;1.10;99.90
25718;DHT22;13574;52.040;5.692;2022-12-15T04:43:46;1.00;99.90
25718;DHT22;13574;52.040;5.692;2022-12-15T04:46:30;1.10;99.90
25718;DHT22;13574;52.040;5.692;2022-12-15T04:49:14;1.20;99.90
25718;DHT22;13574;52.040;5.692;2022-12-15T04:51:57;1.10;99.90
25718;DHT22;13574;52.040;5.692;2022-12-15T04:54:41;1.10;99.90
25718;DHT22;13574;52.040;5.692;2022-12-15T04:57:25;1.10;99.90
25718;DHT22;13574;52.040;5.692;2022-12-15T05:00:10;1.00;99.90
25718;DHT22;13574;52.040;5.692;2022-12-15T05:02:54;1.00;99.90
25718;DHT22;13574;52.040;5.692;2022-12-15T05:05:38;1.00;99.90
25718;DHT22;13574;52.040;5.692;2022-12-15T05:08:22;0.90;99.90
25718;DHT22;13574;52.040;5.692;2022-12-15T05:11:09;0.80;99.90
25718;DHT22;13574;52.040;5.692;2022-12-15T05:13:53;0.70;99.90
25718;DHT22;13574;52.040;5.692;2022-12-15T05:16:37;0.80;99.90
25718;DHT22;13574;52.040;5.692;2022-12-15T05:19:21;0.90;99.90
25718;DHT22;13574;52.040;5.692;2022-12-15T05:22:05;0.90;99.90
25718;DHT22;13574;52.040;5.692;2022-12-15T05:24:49;0.90;99.90
25718;DHT22;13574;52.040;5.692;2022-12-15T05:27:34;0.90;99.90
25718;DHT22;13574;52.040;5.692;2022-12-15T05:30:18;0.90;99.90
25718;DHT22;13574;52.040;5.692;2022-12-15T05:33:03;0.90;99.90
25718;DHT22;13574;52.040;5.692;2022-12-15T05:35:29;0.90;99.90
25718;DHT22;13574;52.040;5.692;2022-12-15T05:37:55;0.80;99.90
25718;DHT22;13574;52.040;5.692;2022-12-15T05:40:20;0.80;99.90
25718;DHT22;13574;52.040;5.692;2022-12-15T05:42:46;0.70;99.90
25718;DHT22;13574;52.040;5.692;2022-12-15T05:45:11;0.70;99.90
25718;DHT22;13574;52.040;5.692;2022-12-15T05:47:37;0.90;99.90
25718;DHT22;13574;52.040;5.692;2022-12-15T05:50:03;0.90;99.90
25718;DHT22;13574;52.040;5.692;2022-12-15T05:52:28;0.90;99.90
25718;DHT22;13574;52.040;5.692;2022-12-15T05:54:54;1.00;99.90
25718;DHT22;13574;52.040;5.692;2022-12-15T05:57:20;1.00;99.90
25718;DHT22;13574;52.040;5.692;2022-12-15T05:59:45;0.90;99.90
25718;DHT22;13574;52.040;5.692;2022-12-15T06:02:11;0.90;99.90
25718;DHT22;13574;52.040;5.692;2022-12-15T06:04:37;0.80;99.90
25718;DHT22;13574;52.040;5.692;2022-12-15T06:07:02;0.90;99.90
25718;DHT22;13574;52.040;5.692;2022-12-15T06:09:28;1.00;99.90
25718;DHT22;13574;52.040;5.692;2022-12-15T06:11:53;1.00;99.90
25718;DHT22;13574;52.040;5.692;2022-12-15T06:14:19;1.00;99.90
25718;DHT22;13574;52.040;5.692;2022-12-15T06:16:45;1.00;99.90
25718;DHT22;13574;52.040;5.692;2022-12-15T06:19:10;1.00;99.90
25718;DHT22;13574;52.040;5.692;2022-12-15T06:21:36;1.00;99.90
25718;DHT22;13574;52.040;5.692;2022-12-15T06:24:04;1.00;99.90
25718;DHT22;13574;52.040;5.692;2022-12-15T06:26:35;1.00;99.90
25718;DHT22;13574;52.040;5.692;2022-12-15T06:29:04;1.00;99.90
25718;DHT22;13574;52.040;5.692;2022-12-15T06:31:32;1.00;99.90
25718;DHT22;13574;52.040;5.692;2022-12-15T06:33:58;0.90;99.90
25718;DHT22;13574;52.040;5.692;2022-12-15T06:36:24;0.90;99.90
25718;DHT22;13574;52.040;5.692;2022-12-15T06:38:50;1.00;99.90
25718;DHT22;13574;52.040;5.692;2022-12-15T06:41:19;0.90;99.90
25718;DHT22;13574;52.040;5.692;2022-12-15T06:43:52;0.90;99.90
25718;DHT22;13574;52.040;5.692;2022-12-15T06:46:20;0.90;99.90
25718;DHT22;13574;52.040;5.692;2022-12-15T06:48:46;1.00;99.90
25718;DHT22;13574;52.040;5.692;2022-12-15T06:51:13;1.00;99.90
25718;DHT22;13574;52.040;5.692;2022-12-15T06:53:39;1.10;99.90
25718;DHT22;13574;52.040;5.692;2022-12-15T06:56:09;0.90;99.90
25718;DHT22;13574;52.040;5.692;2022-12-15T06:58:38;1.00;99.90
25718;DHT22;13574;52.040;5.692;2022-12-15T07:01:05;1.00;99.90
25718;DHT22;13574;52.040;5.692;2022-12-15T07:03:32;0.90;99.90
25718;DHT22;13574;52.040;5.692;2022-12-15T07:06:04;1.00;99.90
25718;DHT22;13574;52.040;5.692;2022-12-15T07:08:30;0.80;99.90
25718;DHT22;13574;52.040;5.692;2022-12-15T07:10:56;0.90;99.90
25718;DHT22;13574;52.040;5.692;2022-12-15T07:13:22;0.90;99.90
25718;DHT22;13574;52.040;5.692;2022-12-15T07:15:47;0.80;99.90
25718;DHT22;13574;52.040;5.692;2022-12-15T07:18:14;0.80;99.90
25718;DHT22;13574;52.040;5.692;2022-12-15T07:20:41;0.60;99.90
25718;DHT22;13574;52.040;5.692;2022-12-15T07:23:07;0.70;99.90
25718;DHT22;13574;52.040;5.692;2022-12-15T07:25:38;0.70;99.90
25718;DHT22;13574;52.040;5.692;2022-12-15T07:28:04;0.80;99.90
25718;DHT22;13574;52.040;5.692;2022-12-15T07:30:30;0.80;99.90
25718;DHT22;13574;52.040;5.692;2022-12-15T07:32:56;0.90;99.90
25718;DHT22;13574;52.040;5.692;2022-12-15T07:35:22;0.80;99.90
25718;DHT22;13574;52.040;5.692;2022-12-15T07:37:47;0.80;99.90
25718;DHT22;13574;52.040;5.692;2022-12-15T07:40:13;0.80;99.90
25718;DHT22;13574;52.040;5.692;2022-12-15T07:42:39;0.80;99.90
25718;DHT22;13574;52.040;5.692;2022-12-15T07:45:05;1.00;99.90
25718;DHT22;13574;52.040;5.692;2022-12-15T07:47:32;0.90;99.90
25718;DHT22;13574;52.040;5.692;2022-12-15T07:49:57;0.90;99.90
25718;DHT22;13574;52.040;5.692;2022-12-15T07:52:23;0.90;99.90
25718;DHT22;13574;52.040;5.692;2022-12-15T07:54:49;0.90;99.90
25718;DHT22;13574;52.040;5.692;2022-12-15T07:57:15;0.80;99.90
25718;DHT22;13574;52.040;5.692;2022-12-15T07:59:42;0.80;99.90
25718;DHT22;13574;52.040;5.692;2022-12-15T08:02:09;0.80;99.90
25718;DHT22;13574;52.040;5.692;2022-12-15T08:04:36;0.80;99.90
25718;DHT22;13574;52.040;5.692;2022-12-15T08:07:01;0.90;99.90
25718;DHT22;13574;52.040;5.692;2022-12-15T08:09:27;0.90;99.90
25718;DHT22;13574;52.040;5.692;2022-12-15T08:11:53;1.10;99.90
25718;DHT22;13574;52.040;5.692;2022-12-15T08:14:18;1.10;99.90
25718;DHT22;13574;52.040;5.692;2022-12-15T08:16:44;1.10;99.90
25718;DHT22;13574;52.040;5.692;2022-12-15T08:19:11;1.20;99.90
25718;DHT22;13574;52.040;5.692;2022-12-15T08:21:41;1.30;99.90
25718;DHT22;13574;52.040;5.692;2022-12-15T08:24:08;1.20;99.90
25718;DHT22;13574;52.040;5.692;2022-12-15T08:26:35;1.20;99.90
25718;DHT22;13574;52.040;5.692;2022-12-15T08:29:05;1.00;99.90
25718;DHT22;13574;52.040;5.692;2022-12-15T08:31:31;1.10;99.90
25718;DHT22;13574;52.040;5.692;2022-12-15T08:34:02;1.00;99.90
25718;DHT22;13574;52.040;5.692;2022-12-15T08:36:29;1.20;99.90
25718;DHT22;13574;52.040;5.692;2022-12-15T08:38:56;1.20;99.90
25718;DHT22;13574;52.040;5.692;2022-12-15T08:41:27;1.30;99.90
25718;DHT22;13574;52.040;5.692;2022-12-15T08:43:55;1.30;99.90
25718;DHT22;13574;52.040;5.692;2022-12-15T08:46:23;1.40;99.90
25718;DHT22;13574;52.040;5.692;2022-12-15T08:48:50;1.50;99.90
25718;DHT22;13574;52.040;5.692;2022-12-15T08:51:17;1.40;99.90
25718;DHT22;13574;52.040;5.692;2022-12-15T08:53:43;1.50;99.90
25718;DHT22;13574;52.040;5.692;2022-12-15T08:56:12;1.50;99.90
25718;DHT22;13574;52.040;5.692;2022-12-15T08:58:40;1.60;99.90
25718;DHT22;13574;52.040;5.692;2022-12-15T09:01:11;1.70;99.90
25718;DHT22;13574;52.040;5.692;2022-12-15T09:03:37;1.70;99.90
25718;DHT22;13574;52.040;5.692;2022-12-15T09:06:13;1.70;99.90
25718;DHT22;13574;52.040;5.692;2022-12-15T09:08:40;1.70;99.90
25718;DHT22;13574;52.040;5.692;2022-12-15T09:11:05;1.80;99.90
25718;DHT22;13574;52.040;5.692;2022-12-15T09:13:31;1.80;99.90
25718;DHT22;13574;52.040;5.692;2022-12-15T09:16:04;1.70;99.90
25718;DHT22;13574;52.040;5.692;2022-12-15T09:18:30;1.70;99.90
25718;DHT22;13574;52.040;5.692;2022-12-15T09:23:32;1.60;99.90
25718;DHT22;13574;52.040;5.692;2022-12-15T09:26:07;1.80;99.90
25718;DHT22;13574;52.040;5.692;2022-12-15T09:28:37;1.80;99.90
25718;DHT22;13574;52.040;5.692;2022-12-15T09:31:09;1.90;99.90
25718;DHT22;13574;52.040;5.692;2022-12-15T09:33:35;1.90;99.90
25718;DHT22;13574;52.040;5.692;2022-12-15T09:36:02;1.80;99.90
25718;DHT22;13574;52.040;5.692;2022-12-15T09:38:28;1.70;99.90
25718;DHT22;13574;52.040;5.692;2022-12-15T09:40:54;1.80;99.90
25718;DHT22;13574;52.040;5.692;2022-12-15T09:43:25;1.80;99.90
25718;DHT22;13574;52.040;5.692;2022-12-15T09:46:06;1.90;99.90
25718;DHT22;13574;52.040;5.692;2022-12-15T09:48:40;1.90;99.90
25718;DHT22;13574;52.040;5.692;2022-12-15T09:51:13;2.00;99.90
25718;DHT22;13574;52.040;5.692;2022-12-15T09:53:41;2.10;99.90
25718;DHT22;13574;52.040;5.692;2022-12-15T09:56:14;2.10;99.90
25718;DHT22;13574;52.040;5.692;2022-12-15T09:59:01;2.10;99.90
25718;DHT22;13574;52.040;5.692;2022-12-15T10:09:25;2.20;99.90
25718;DHT22;13574;52.040;5.692;2022-12-15T10:12:16;2.20;99.90
25718;DHT22;13574;52.040;5.692;2022-12-15T10:14:48;2.30;99.90
25718;DHT22;13574;52.040;5.692;2022-12-15T10:17:27;2.40;99.90
25718;DHT22;13574;52.040;5.692;2022-12-15T10:20:23;2.50;99.90
25718;DHT22;13574;52.040;5.692;2022-12-15T10:22:50;2.60;99.90
25718;DHT22;13574;52.040;5.692;2022-12-15T10:25:20;2.70;99.90
25718;DHT22;13574;52.040;5.692;2022-12-15T10:30:29;2.70;99.90
25718;DHT22;13574;52.040;5.692;2022-12-15T10:35:22;2.80;99.90
25718;DHT22;13574;52.040;5.692;2022-12-15T10:37:48;2.70;99.90
25718;DHT22;13574;52.040;5.692;2022-12-15T10:40:18;2.70;99.90
25718;DHT22;13574;52.040;5.692;2022-12-15T10:42:49;2.70;99.90
25718;DHT22;13574;52.040;5.692;2022-12-15T10:45:28;2.80;99.90
25718;DHT22;13574;52.040;5.692;2022-12-15T10:47:58;2.80;99.90
25718;DHT22;13574;52.040;5.692;2022-12-15T10:50:26;2.90;99.90
25718;DHT22;13574;52.040;5.692;2022-12-15T10:52:52;3.00;99.90
25718;DHT22;13574;52.040;5.692;2022-12-15T10:55:38;3.10;99.90
25718;DHT22;13574;52.040;5.692;2022-12-15T10:58:18;3.10;99.90
25718;DHT22;13574;52.040;5.692;2022-12-15T11:00:45;3.00;99.90
25718;DHT22;13574;52.040;5.692;2022-12-15T11:03:25;3.10;99.90
25718;DHT22;13574;52.040;5.692;2022-12-15T11:05:53;3.10;99.90
25718;DHT22;13574;52.040;5.692;2022-12-15T11:08:19;3.20;99.90
25718;DHT22;13574;52.040;5.692;2022-12-15T11:10:52;3.30;99.90
25718;DHT22;13574;52.040;5.692;2022-12-15T11:13:39;3.40;99.90
25718;DHT22;13574;52.040;5.692;2022-12-15T11:16:18;3.40;99.90
25718;DHT22;13574;52.040;5.692;2022-12-15T11:18:48;3.30;99.90
25718;DHT22;13574;52.040;5.692;2022-12-15T11:21:38;3.40;99.90
25718;DHT22;13574;52.040;5.692;2022-12-15T11:24:37;3.50;99.90
25718;DHT22;13574;52.040;5.692;2022-12-15T11:30:00;3.50;99.90
25718;DHT22;13574;52.040;5.692;2022-12-15T11:32:32;3.60;99.90
25718;DHT22;13574;52.040;5.692;2022-12-15T11:34:58;3.80;99.90
25718;DHT22;13574;52.040;5.692;2022-12-15T11:48:37;4.60;99.90
25718;DHT22;13574;52.040;5.692;2022-12-15T11:59:26;4.90;99.90
25718;DHT22;13574;52.040;5.692;2022-12-15T12:04:33;4.90;99.90
25718;DHT22;13574;52.040;5.692;2022-12-15T12:07:54;4.80;99.90
25718;DHT22;13574;52.040;5.692;2022-12-15T12:13:08;5.00;99.90
25718;DHT22;13574;52.040;5.692;2022-12-15T12:16:09;5.10;99.90
25718;DHT22;13574;52.040;5.692;2022-12-15T12:18:43;5.20;99.90
25718;DHT22;13574;52.040;5.692;2022-12-15T12:21:17;5.20;99.90
25718;DHT22;13574;52.040;5.692;2022-12-15T12:23:49;5.20;99.90
25718;DHT22;13574;52.040;5.692;2022-12-15T12:31:21;5.40;99.90
25718;DHT22;13574;52.040;5.692;2022-12-15T12:33:54;5.40;99.90
25718;DHT22;13574;52.040;5.692;2022-12-15T12:36:23;5.60;99.90
25718;DHT22;13574;52.040;5.692;2022-12-15T12:38:52;5.70;99.90
25718;DHT22;13574;52.040;5.692;2022-12-15T12:43:58;5.40;99.90
25718;DHT22;13574;52.040;5.692;2022-12-15T12:46:46;5.60;99.90
25718;DHT22;13574;52.040;5.692;2022-12-15T12:49:40;5.60;99.90
25718;DHT22;13574;52.040;5.692;2022-12-15T12:52:25;5.80;99.90
25718;DHT22;13574;52.040;5.692;2022-12-15T12:55:42;5.70;99.90
25718;DHT22;13574;52.040;5.692;2022-12-15T12:57:50;5.60;99.90
25718;DHT22;13574;52.040;5.692;2022-12-15T13:00:22;5.50;99.90
25718;DHT22;13574;52.040;5.692;2022-12-15T13:02:53;5.60;99.90
25718;DHT22;13574;52.040;5.692;2022-12-15T13:05:32;5.50;99.90
25718;DHT22;13574;52.040;5.692;2022-12-15T13:10:34;5.40;99.90
25718;DHT22;13574;52.040;5.692;2022-12-15T13:19:00;5.50;99.90
25718;DHT22;13574;52.040;5.692;2022-12-15T13:21:51;5.50;99.90
25718;DHT22;13574;52.040;5.692;2022-12-15T13:27:00;5.40;99.90
25718;DHT22;13574;52.040;5.692;2022-12-15T13:29:27;5.20;99.90
25718;DHT22;13574;52.040;5.692;2022-12-15T13:31:53;5.20;99.90
25718;DHT22;13574;52.040;5.692;2022-12-15T13:34:20;5.10;99.90
25718;DHT22;13574;52.040;5.692;2022-12-15T13:36:49;5.10;99.90
25718;DHT22;13574;52.040;5.692;2022-12-15T13:46:52;5.30;99.90
25718;DHT22;13574;52.040;5.692;2022-12-15T13:49:27;5.20;99.90
25718;DHT22;13574;52.040;5.692;2022-12-15T13:52:01;5.20;99.90
25718;DHT22;13574;52.040;5.692;2022-12-15T13:54:34;5.20;99.90
25718;DHT22;13574;52.040;5.692;2022-12-15T13:57:11;5.20;99.90
25718;DHT22;13574;52.040;5.692;2022-12-15T14:02:25;5.00;99.90
25718;DHT22;13574;52.040;5.692;2022-12-15T14:05:04;5.10;99.90
25718;DHT22;13574;52.040;5.692;2022-12-15T14:07:31;5.20;99.90
25718;DHT22;13574;52.040;5.692;2022-12-15T14:09:57;5.20;99.90
25718;DHT22;13574;52.040;5.692;2022-12-15T14:12:23;5.30;99.90
25718;DHT22;13574;52.040;5.692;2022-12-15T14:14:49;5.30;99.90
25718;DHT22;13574;52.040;5.692;2022-12-15T14:17:16;5.40;99.90
25718;DHT22;13574;52.040;5.692;2022-12-15T14:19:44;5.50;99.90
25718;DHT22;13574;52.040;5.692;2022-12-15T14:22:29;5.60;99.90
25718;DHT22;13574;52.040;5.692;2022-12-15T14:25:21;5.60;99.90
25718;DHT22;13574;52.040;5.692;2022-12-15T14:27:48;5.60;99.90
25718;DHT22;13574;52.040;5.692;2022-12-15T14:30:24;5.70;99.90
25718;DHT22;13574;52.040;5.692;2022-12-15T14:33:13;5.70;99.90
25718;DHT22;13574;52.040;5.692;2022-12-15T14:35:50;5.70;99.90
25718;DHT22;13574;52.040;5.692;2022-12-15T14:38:23;5.50;99.90
25718;DHT22;13574;52.040;5.692;2022-12-15T14:40:51;5.50;99.90
25718;DHT22;13574;52.040;5.692;2022-12-15T14:43:24;5.60;99.90
25718;DHT22;13574;52.040;5.692;2022-12-15T14:46:04;5.60;99.90
25718;DHT22;13574;52.040;5.692;2022-12-15T14:48:34;5.60;99.90
25718;DHT22;13574;52.040;5.692;2022-12-15T14:51:01;5.40;99.90
25718;DHT22;13574;52.040;5.692;2022-12-15T14:53:32;5.40;99.90
25718;DHT22;13574;52.040;5.692;2022-12-15T15:01:28;5.10;99.90
25718;DHT22;13574;52.040;5.692;2022-12-15T15:04:00;5.00;99.90
25718;DHT22;13574;52.040;5.692;2022-12-15T15:06:36;5.00;99.90
25718;DHT22;13574;52.040;5.692;2022-12-15T15:09:14;4.90;99.90
25718;DHT22;13574;52.040;5.692;2022-12-15T15:11:42;4.80;99.90
25718;DHT22;13574;52.040;5.692;2022-12-15T15:14:14;4.70;99.90
25718;DHT22;13574;52.040;5.692;2022-12-15T15:16:42;4.60;99.90
25718;DHT22;13574;52.040;5.692;2022-12-15T15:19:19;4.60;99.90
25718;DHT22;13574;52.040;5.692;2022-12-15T15:21:45;4.40;99.90
25718;DHT22;13574;52.040;5.692;2022-12-15T15:26:38;4.30;99.90
25718;DHT22;13574;52.040;5.692;2022-12-15T15:29:42;4.20;99.90
25718;DHT22;13574;52.040;5.692;2022-12-15T15:32:16;4.20;99.90
25718;DHT22;13574;52.040;5.692;2022-12-15T15:34:42;4.20;99.90
25718;DHT22;13574;52.040;5.692;2022-12-15T15:37:19;4.10;99.90
25718;DHT22;13574;52.040;5.692;2022-12-15T15:39:49;4.00;99.90
25718;DHT22;13574;52.040;5.692;2022-12-15T15:42:16;3.90;99.90
25718;DHT22;13574;52.040;5.692;2022-12-15T15:44:42;3.90;99.90
25718;DHT22;13574;52.040;5.692;2022-12-15T15:47:27;3.80;99.90
25718;DHT22;13574;52.040;5.692;2022-12-15T15:49:56;3.70;99.90
25718;DHT22;13574;52.040;5.692;2022-12-15T15:52:23;3.80;99.90
25718;DHT22;13574;52.040;5.692;2022-12-15T15:54:49;3.60;99.90
25718;DHT22;13574;52.040;5.692;2022-12-15T15:57:16;3.60;99.90
25718;DHT22;13574;52.040;5.692;2022-12-15T15:59:43;3.50;99.90
25718;DHT22;13574;52.040;5.692;2022-12-15T16:02:10;3.40;99.90
25718;DHT22;13574;52.040;5.692;2022-12-15T16:04:40;3.30;99.90
25718;DHT22;13574;52.040;5.692;2022-12-15T16:07:38;3.30;99.90
25718;DHT22;13574;52.040;5.692;2022-12-15T16:10:13;3.40;99.90
25718;DHT22;13574;52.040;5.692;2022-12-15T16:12:51;3.40;99.90
25718;DHT22;13574;52.040;5.692;2022-12-15T16:15:22;3.40;99.90
25718;DHT22;13574;52.040;5.692;2022-12-15T16:17:49;3.40;99.90
25718;DHT22;13574;52.040;5.692;2022-12-15T16:20:16;3.20;99.90
25718;DHT22;13574;52.040;5.692;2022-12-15T16:22:44;3.30;99.90
25718;DHT22;13574;52.040;5.692;2022-12-15T16:25:28;3.30;99.90
25718;DHT22;13574;52.040;5.692;2022-12-15T16:27:54;3.30;99.90
25718;DHT22;13574;52.040;5.692;2022-12-15T16:30:22;3.30;99.90
25718;DHT22;13574;52.040;5.692;2022-12-15T16:32:49;3.20;99.90
25718;DHT22;13574;52.040;5.692;2022-12-15T16:35:15;3.30;99.90
25718;DHT22;13574;52.040;5.692;2022-12-15T16:37:42;3.20;99.90
25718;DHT22;13574;52.040;5.692;2022-12-15T16:40:16;3.20;99.90
25718;DHT22;13574;52.040;5.692;2022-12-15T16:42:47;3.20;99.90
25718;DHT22;13574;52.040;5.692;2022-12-15T16:45:17;3.20;99.90
25718;DHT22;13574;52.040;5.692;2022-12-15T16:47:43;3.20;99.90
25718;DHT22;13574;52.040;5.692;2022-12-15T16:50:15;3.20;99.90
25718;DHT22;13574;52.040;5.692;2022-12-15T16:52:42;3.20;99.90
25718;DHT22;13574;52.040;5.692;2022-12-15T16:57:47;3.20;99.90
25718;DHT22;13574;52.040;5.692;2022-12-15T17:00:19;3.20;99.90
25718;DHT22;13574;52.040;5.692;2022-12-15T17:02:46;3.10;99.90
25718;DHT22;13574;52.040;5.692;2022-12-15T17:05:11;3.20;99.90
25718;DHT22;13574;52.040;5.692;2022-12-15T17:07:37;3.20;99.90
25718;DHT22;13574;52.040;5.692;2022-12-15T17:10:04;3.10;99.90
25718;DHT22;13574;52.040;5.692;2022-12-15T17:12:30;3.00;99.90
25718;DHT22;13574;52.040;5.692;2022-12-15T17:14:55;3.00;99.90
25718;DHT22;13574;52.040;5.692;2022-12-15T17:17:22;3.10;99.90
25718;DHT22;13574;52.040;5.692;2022-12-15T17:19:49;3.10;99.90
25718;DHT22;13574;52.040;5.692;2022-12-15T17:22:16;3.10;99.90
25718;DHT22;13574;52.040;5.692;2022-12-15T17:24:42;3.10;99.90
25718;DHT22;13574;52.040;5.692;2022-12-15T17:27:24;3.00;99.90
25718;DHT22;13574;52.040;5.692;2022-12-15T17:29:53;3.00;99.90
25718;DHT22;13574;52.040;5.692;2022-12-15T17:32:19;3.00;99.90
25718;DHT22;13574;52.040;5.692;2022-12-15T17:34:45;2.70;99.90
25718;DHT22;13574;52.040;5.692;2022-12-15T17:37:12;2.90;99.90
25718;DHT22;13574;52.040;5.692;2022-12-15T17:39:39;2.90;99.90
25718;DHT22;13574;52.040;5.692;2022-12-15T17:42:16;2.90;99.90
25718;DHT22;13574;52.040;5.692;2022-12-15T17:44:42;2.90;99.90
25718;DHT22;13574;52.040;5.692;2022-12-15T17:47:11;3.00;99.90
25718;DHT22;13574;52.040;5.692;2022-12-15T17:49:36;3.00;99.90
25718;DHT22;13574;52.040;5.692;2022-12-15T17:54:38;3.10;99.90
25718;DHT22;13574;52.040;5.692;2022-12-15T17:57:04;3.10;99.90
25718;DHT22;13574;52.040;5.692;2022-12-15T17:59:29;2.90;99.90
25718;DHT22;13574;52.040;5.692;2022-12-15T18:01:56;2.90;99.90
25718;DHT22;13574;52.040;5.692;2022-12-15T18:04:22;2.90;99.90
25718;DHT22;13574;52.040;5.692;2022-12-15T18:06:47;2.90;99.90
25718;DHT22;13574;52.040;5.692;2022-12-15T18:09:15;2.90;99.90